Jay, Oklahoma
Current Conditions -  °F | °C
As of 4:35 AM on Sunday 21 Dec 2014 (Local Time) from KGMJ Reporting Station
Haze Haze  
Wind Chill: 45°   Ceiling: 2800
Heat Index: 45°   Visibility: 5mi
Dew Point: 45°   Wind: 3mph
Humidity: 100%   Direction: 160°SSE
Pressure: 30.12"   Gusts: NA
Location:  36.42°N, 94.8°W
Report Text: KGMJ 211035Z AUTO 16003KT 5SM BR OVC028 07/07 A3012 RMK AO2
Loading
Personal Weather Stations






























Interactive Weather Map New forecast layout! Learn more

10-Day Weather Forecast

Advertisements
Track Severe Weather on mobile